createdAt,value
2019-05-19T00:01:54.382Z,88.56
2019-05-19T00:04:21.563Z,88.32
2019-05-19T00:06:48.308Z,88.76
2019-05-19T00:09:16.708Z,88.53
2019-05-19T00:11:43.877Z,88.60
2019-05-19T00:14:10.581Z,89.14
2019-05-19T00:16:37.266Z,89.57
2019-05-19T00:19:04.154Z,89.85
2019-05-19T00:21:30.848Z,89.92
2019-05-19T00:23:59.781Z,90.38
2019-05-19T00:26:26.639Z,90.12
2019-05-19T00:28:53.447Z,90.20
2019-05-19T00:31:21.326Z,90.34
2019-05-19T00:33:48.226Z,90.57
2019-05-19T00:36:14.972Z,90.95
2019-05-19T00:38:41.729Z,90.88
2019-05-19T00:41:08.487Z,90.58
2019-05-19T00:43:35.240Z,90.46
2019-05-19T00:46:03.319Z,90.53
2019-05-19T00:48:30.160Z,90.81
2019-05-19T00:50:56.926Z,90.16
2019-05-19T00:53:23.647Z,90.27
2019-05-19T00:55:50.823Z,89.94
2019-05-19T00:58:18.405Z,89.70
2019-05-19T01:00:45.095Z,89.67
2019-05-19T01:03:11.967Z,90.07
2019-05-19T01:05:38.709Z,90.13
2019-05-19T01:08:05.490Z,89.57
2019-05-19T01:10:32.234Z,89.26
2019-05-19T01:12:58.898Z,89.27
2019-05-19T01:15:25.583Z,89.40
2019-05-19T01:17:52.605Z,88.78
2019-05-19T01:20:20.636Z,88.65
2019-05-19T01:22:47.309Z,88.40
2019-05-19T01:25:14.255Z,88.29
2019-05-19T01:27:41.049Z,88.35
2019-05-19T01:30:09.137Z,88.74
2019-05-19T01:32:35.890Z,88.50
2019-05-19T01:35:04.146Z,88.92
2019-05-19T01:37:30.927Z,88.64
2019-05-19T01:39:57.669Z,88.94
2019-05-19T01:42:24.453Z,89.02
2019-05-19T01:44:51.331Z,89.45
2019-05-19T01:47:18.166Z,89.38
2019-05-19T01:49:44.996Z,89.06
2019-05-19T01:52:11.669Z,89.54
2019-05-19T01:54:38.420Z,89.63
2019-05-19T01:57:05.102Z,89.28
2019-05-19T01:59:31.791Z,89.12
2019-05-19T02:01:58.539Z,89.09
2019-05-19T02:04:25.200Z,88.73
2019-05-19T02:06:51.916Z,88.78
2019-05-19T02:09:18.735Z,88.89
2019-05-19T02:11:45.501Z,88.72
2019-05-19T02:14:12.269Z,88.73
2019-05-19T02:16:39.091Z,88.83
2019-05-19T02:19:05.773Z,88.33
2019-05-19T02:21:32.718Z,88.45
2019-05-19T02:23:59.459Z,88.62
2019-05-19T02:26:26.149Z,89.04
2019-05-19T02:28:52.902Z,88.94
2019-05-19T02:31:19.657Z,88.84
2019-05-19T02:33:46.355Z,88.34
2019-05-19T02:36:13.096Z,88.68
2019-05-19T02:38:40.087Z,88.68
2019-05-19T02:41:08.891Z,88.91
2019-05-19T02:43:36.544Z,89.13
2019-05-19T02:46:03.753Z,88.91
2019-05-19T02:48:32.049Z,88.72
2019-05-19T02:51:01.048Z,88.57
2019-05-19T02:53:29.334Z,88.80
2019-05-19T02:55:57.030Z,89.29
2019-05-19T02:58:24.610Z,89.34
2019-05-19T03:00:51.324Z,89.18
2019-05-19T03:03:18.019Z,89.29
2019-05-19T03:05:44.781Z,89.70
2019-05-19T03:08:11.475Z,89.95
2019-05-19T03:10:38.152Z,90.18
2019-05-19T03:13:04.812Z,89.87
2019-05-19T03:15:31.533Z,90.10
2019-05-19T03:17:58.202Z,90.43
2019-05-19T03:20:24.961Z,90.68
2019-05-19T03:22:51.731Z,90.79
2019-05-19T03:25:18.647Z,90.81
2019-05-19T03:27:45.330Z,90.92
2019-05-19T03:30:32.753Z,90.91
2019-05-19T03:33:13.354Z,90.68
2019-05-19T03:35:40.154Z,90.41
2019-05-19T03:38:06.822Z,90.27
2019-05-19T03:40:33.600Z,90.34
2019-05-19T03:43:00.269Z,90.50
2019-05-19T03:45:26.962Z,90.76
2019-05-19T03:47:53.644Z,90.76
2019-05-19T03:50:20.603Z,90.75
2019-05-19T03:52:47.444Z,90.88
2019-05-19T03:55:14.254Z,90.65
2019-05-19T03:57:41.049Z,89.31
2019-05-19T04:00:08.481Z,85.87
2019-05-19T04:02:35.116Z,87.18
2019-05-19T04:05:01.962Z,87.67
2019-05-19T04:07:28.683Z,88.42
2019-05-19T04:09:55.492Z,88.74
2019-05-19T04:12:22.182Z,88.82
2019-05-19T04:14:48.873Z,88.87
2019-05-19T04:17:15.643Z,88.52
2019-05-19T04:19:42.437Z,88.03
2019-05-19T04:22:09.124Z,87.14
2019-05-19T04:24:39.480Z,87.53
2019-05-19T04:27:06.131Z,87.77
2019-05-19T04:29:33.163Z,87.70
2019-05-19T04:31:59.837Z,82.34
2019-05-19T04:34:26.560Z,79.49
2019-05-19T04:36:53.258Z,83.37
2019-05-19T04:39:20.021Z,83.65
2019-05-19T04:41:46.694Z,85.36
2019-05-19T04:44:13.397Z,85.49
2019-05-19T04:46:40.163Z,85.08
2019-05-19T04:49:06.915Z,82.65
2019-05-19T04:51:33.614Z,80.24
2019-05-19T04:54:00.313Z,80.05
2019-05-19T04:56:27.014Z,76.54
2019-05-19T04:58:53.828Z,77.42
2019-05-19T05:01:20.495Z,78.56
2019-05-19T05:03:47.192Z,77.45
2019-05-19T05:06:13.860Z,77.52
2019-05-19T05:08:40.607Z,77.72
2019-05-19T05:11:07.277Z,77.18
2019-05-19T05:13:34.092Z,78.33
2019-05-19T05:16:00.851Z,78.33
2019-05-19T05:18:27.677Z,78.93
2019-05-19T05:20:54.436Z,80.90
2019-05-19T05:23:21.161Z,81.88
2019-05-19T05:25:47.862Z,74.68
2019-05-19T05:28:14.753Z,74.51
2019-05-19T05:30:41.441Z,72.00
2019-05-19T05:33:08.606Z,73.09
2019-05-19T05:35:35.287Z,72.77
2019-05-19T05:38:02.252Z,71.96
2019-05-19T05:40:29.033Z,69.35
2019-05-19T05:42:55.718Z,69.52
2019-05-19T05:45:22.801Z,67.54
2019-05-19T05:47:49.492Z,69.79
2019-05-19T05:50:16.413Z,68.14
2019-05-19T05:52:43.151Z,71.32
2019-05-19T05:55:09.962Z,71.33
2019-05-19T05:57:36.729Z,71.15
2019-05-19T06:00:06.065Z,68.21
2019-05-19T06:02:32.783Z,66.28
2019-05-19T06:04:59.504Z,64.26
2019-05-19T06:07:26.275Z,65.60
2019-05-19T06:09:53.326Z,67.35
2019-05-19T06:12:20.015Z,63.24
2019-05-19T06:14:46.761Z,62.09
2019-05-19T06:17:13.552Z,60.27
2019-05-19T06:19:40.232Z,61.26
2019-05-19T06:22:07.088Z,58.93
2019-05-19T06:24:33.774Z,60.92
2019-05-19T06:27:00.467Z,60.74
2019-05-19T06:29:27.238Z,57.18
2019-05-19T06:31:55.742Z,59.22
2019-05-19T06:34:22.455Z,55.21
2019-05-19T06:36:49.193Z,56.96
2019-05-19T06:39:15.968Z,56.37
2019-05-19T06:41:42.737Z,58.17
2019-05-19T06:44:09.500Z,57.39
2019-05-19T06:46:36.193Z,57.43
2019-05-19T06:49:03.026Z,59.90
2019-05-19T06:51:30.139Z,59.57
2019-05-19T06:53:56.811Z,58.28
2019-05-19T06:56:23.510Z,57.97
2019-05-19T06:58:50.239Z,57.99
2019-05-19T07:01:16.910Z,56.86
2019-05-19T07:03:43.593Z,51.11
2019-05-19T07:06:10.290Z,53.74
2019-05-19T07:11:03.538Z,55.85
2019-05-19T07:13:30.438Z,53.34
2019-05-19T07:15:57.143Z,53.27
2019-05-19T07:18:23.809Z,51.47
2019-05-19T07:20:50.896Z,50.44
2019-05-19T07:23:27.782Z,50.64
2019-05-19T07:25:46.167Z,51.65
2019-05-19T07:28:12.972Z,51.18
2019-05-19T07:30:39.697Z,49.39
2019-05-19T07:33:06.491Z,49.26
2019-05-19T07:35:33.249Z,48.45
2019-05-19T07:37:59.948Z,50.86
2019-05-19T07:40:26.616Z,47.17
2019-05-19T07:42:53.356Z,46.45
2019-05-19T07:45:20.401Z,49.15
2019-05-19T07:47:47.148Z,48.63
2019-05-19T07:50:13.970Z,47.01
2019-05-19T07:52:40.738Z,48.15
2019-05-19T07:55:07.579Z,48.86
2019-05-19T07:57:34.316Z,50.23
2019-05-19T08:00:01.002Z,52.57
2019-05-19T08:02:27.785Z,51.40
2019-05-19T08:04:54.514Z,54.84
2019-05-19T08:07:22.367Z,54.40
2019-05-19T08:09:49.053Z,52.49
2019-05-19T08:12:16.997Z,49.96
2019-05-19T08:14:43.718Z,51.52
2019-05-19T08:17:10.391Z,52.31
2019-05-19T08:19:37.134Z,50.97
2019-05-19T08:22:03.810Z,48.53
2019-05-19T08:24:30.522Z,48.73
2019-05-19T08:26:57.296Z,50.68
2019-05-19T08:29:24.121Z,47.15
2019-05-19T08:31:50.925Z,50.18
2019-05-19T08:34:18.450Z,51.92
2019-05-19T08:36:45.160Z,49.40
2019-05-19T08:39:11.829Z,52.14
2019-05-19T08:41:38.567Z,45.91
2019-05-19T08:44:05.692Z,44.86
2019-05-19T08:46:32.445Z,43.14
2019-05-19T08:48:59.203Z,43.84
2019-05-19T08:51:25.881Z,44.98
2019-05-19T08:53:52.567Z,44.73
2019-05-19T08:56:19.393Z,44.83
2019-05-19T08:58:46.091Z,39.79
2019-05-19T09:01:12.778Z,46.80
2019-05-19T09:03:39.525Z,47.46
2019-05-19T09:06:06.237Z,41.83
2019-05-19T09:08:33.032Z,44.41
2019-05-19T09:10:59.758Z,44.13
2019-05-19T09:13:26.549Z,45.63
2019-05-19T09:15:53.715Z,43.98
2019-05-19T09:18:20.416Z,43.90
2019-05-19T09:20:47.130Z,43.24
2019-05-19T09:23:13.882Z,44.68
2019-05-19T09:25:40.619Z,45.65
2019-05-19T09:28:08.472Z,47.60
2019-05-19T09:30:35.259Z,45.61
2019-05-19T09:33:01.966Z,39.81
2019-05-19T09:35:28.639Z,50.68
2019-05-19T09:37:55.372Z,44.62
2019-05-19T09:40:22.052Z,45.46
2019-05-19T09:42:48.717Z,45.32
2019-05-19T09:45:16.031Z,39.46
2019-05-19T09:47:42.932Z,37.56
2019-05-19T09:50:10.161Z,35.74
2019-05-19T09:52:36.858Z,36.37
2019-05-19T09:55:05.183Z,38.24
2019-05-19T09:57:32.018Z,36.38
2019-05-19T09:59:58.699Z,35.94
2019-05-19T10:02:25.382Z,35.30
2019-05-19T10:04:52.290Z,34.67
2019-05-19T10:07:20.053Z,36.31
2019-05-19T10:09:57.554Z,35.98
2019-05-19T10:12:24.195Z,37.05
2019-05-19T10:14:50.885Z,38.21
2019-05-19T10:17:17.533Z,35.61
2019-05-19T10:19:44.273Z,35.00
2019-05-19T10:22:10.930Z,35.59
2019-05-19T10:24:37.702Z,36.36
2019-05-19T10:27:04.471Z,34.58
2019-05-19T10:29:31.306Z,35.90
2019-05-19T10:31:58.001Z,34.48
2019-05-19T10:34:24.701Z,38.48
2019-05-19T10:36:51.530Z,39.63
2019-05-19T10:39:18.283Z,36.64
2019-05-19T10:41:44.952Z,37.18
2019-05-19T10:44:11.643Z,37.29
2019-05-19T10:46:38.413Z,38.19
2019-05-19T10:49:05.534Z,36.72
2019-05-19T10:51:32.225Z,36.77
2019-05-19T10:53:58.992Z,37.80
2019-05-19T10:56:25.729Z,36.05
2019-05-19T10:58:52.437Z,36.77
2019-05-19T11:01:19.259Z,42.82
2019-05-19T11:03:45.908Z,37.92
2019-05-19T11:06:12.653Z,35.72
2019-05-19T11:08:39.730Z,39.62
2019-05-19T11:11:06.401Z,41.77
2019-05-19T11:13:33.104Z,39.66
2019-05-19T11:15:59.864Z,39.33
2019-05-19T11:18:26.623Z,37.68
2019-05-19T11:20:53.292Z,40.02
2019-05-19T11:23:20.063Z,36.50
2019-05-19T11:25:51.627Z,36.37
2019-05-19T11:28:15.382Z,34.79
2019-05-19T11:30:42.215Z,38.60
2019-05-19T11:33:09.007Z,45.50
2019-05-19T11:35:35.729Z,41.67
2019-05-19T11:38:02.499Z,46.14
2019-05-19T11:40:29.186Z,41.56
2019-05-19T11:42:55.914Z,38.91
2019-05-19T11:45:22.613Z,37.21
2019-05-19T11:47:49.339Z,39.43
2019-05-19T11:50:16.186Z,43.07
2019-05-19T11:52:42.883Z,45.84
2019-05-19T11:55:09.577Z,40.58
2019-05-19T11:57:36.338Z,39.90
2019-05-19T12:00:04.986Z,40.53
2019-05-19T12:02:31.748Z,40.87
2019-05-19T12:04:58.546Z,43.11
2019-05-19T12:07:25.441Z,43.46
2019-05-19T12:09:52.115Z,42.52
2019-05-19T12:12:18.912Z,41.30
2019-05-19T12:14:45.605Z,42.32
2019-05-19T12:17:12.390Z,42.87
2019-05-19T12:19:39.112Z,44.22
2019-05-19T12:22:05.835Z,41.38
2019-05-19T12:24:33.520Z,45.60
2019-05-19T12:27:00.222Z,39.05
2019-05-19T12:29:26.894Z,38.99
2019-05-19T12:31:53.560Z,40.17
2019-05-19T12:34:21.411Z,47.27
2019-05-19T12:36:48.766Z,42.07
2019-05-19T12:39:20.574Z,55.01
2019-05-19T12:41:58.896Z,49.20
2019-05-19T12:44:25.609Z,52.72
2019-05-19T12:46:52.324Z,58.23
2019-05-19T12:49:19.050Z,57.36
2019-05-19T12:51:45.842Z,57.55
2019-05-19T12:54:13.338Z,59.98
2019-05-19T12:56:40.407Z,61.02
2019-05-19T12:59:07.207Z,56.84
2019-05-19T13:01:33.939Z,54.31
2019-05-19T13:04:00.678Z,52.89
2019-05-19T13:06:27.469Z,62.20
2019-05-19T13:08:54.163Z,61.47
2019-05-19T13:11:21.072Z,55.98
2019-05-19T13:13:47.862Z,48.28
2019-05-19T13:16:15.577Z,52.29
2019-05-19T13:18:42.350Z,47.70
2019-05-19T13:21:09.107Z,49.24
2019-05-19T13:23:35.803Z,45.73
2019-05-19T13:26:02.611Z,47.83
2019-05-19T13:28:29.295Z,47.57
2019-05-19T13:30:55.982Z,47.83
2019-05-19T13:33:22.732Z,49.96
2019-05-19T13:35:49.489Z,45.82
2019-05-19T13:38:16.174Z,45.64
2019-05-19T13:40:42.897Z,46.73
2019-05-19T13:43:09.645Z,46.37
2019-05-19T13:45:36.425Z,48.39
2019-05-19T13:48:03.269Z,48.26
2019-05-19T13:50:30.151Z,47.17
2019-05-19T13:52:56.932Z,46.73
2019-05-19T13:55:23.617Z,54.95
2019-05-19T13:57:50.367Z,59.24
2019-05-19T14:00:17.041Z,55.74
2019-05-19T14:02:43.914Z,50.12
2019-05-19T14:05:11.077Z,63.72
2019-05-19T14:07:37.745Z,62.96
2019-05-19T14:10:05.741Z,61.74
2019-05-19T14:12:32.674Z,61.60
2019-05-19T14:14:59.656Z,60.77
2019-05-19T14:17:26.430Z,60.71
2019-05-19T14:19:53.269Z,65.27
2019-05-19T14:22:20.143Z,52.15
2019-05-19T14:24:46.908Z,50.30
2019-05-19T14:27:28.426Z,49.94
2019-05-19T14:29:42.323Z,48.73
2019-05-19T14:32:09.100Z,54.80
2019-05-19T14:34:35.912Z,65.59
2019-05-19T14:37:02.576Z,59.20
2019-05-19T14:39:29.295Z,66.05
2019-05-19T14:41:57.822Z,65.12
2019-05-19T14:44:24.515Z,56.68
2019-05-19T14:46:51.456Z,56.65
2019-05-19T14:49:18.220Z,61.02
2019-05-19T14:51:44.929Z,56.59
2019-05-19T14:54:11.594Z,64.93
2019-05-19T14:56:38.463Z,63.95
2019-05-19T14:59:05.231Z,67.83
2019-05-19T15:01:32.003Z,68.22
2019-05-19T15:03:59.202Z,69.77
2019-05-19T15:06:25.861Z,70.44
2019-05-19T15:08:52.562Z,68.37
2019-05-19T15:11:19.388Z,68.42
2019-05-19T15:13:46.094Z,70.02
2019-05-19T15:16:12.801Z,72.03
2019-05-19T15:18:39.563Z,72.17
2019-05-19T15:21:06.256Z,71.21
2019-05-19T15:23:32.989Z,74.02
2019-05-19T15:25:59.776Z,72.54
2019-05-19T15:28:26.452Z,71.50
2019-05-19T15:30:53.473Z,73.37
2019-05-19T15:33:20.180Z,72.37
2019-05-19T15:35:46.965Z,65.19
2019-05-19T15:38:13.706Z,70.99
2019-05-19T15:40:40.406Z,70.38
2019-05-19T15:43:07.110Z,64.00
2019-05-19T15:45:33.913Z,68.47
2019-05-19T15:48:00.590Z,68.99
2019-05-19T15:50:27.306Z,69.72
2019-05-19T15:52:54.111Z,68.49
2019-05-19T15:55:20.912Z,69.78
2019-05-19T15:57:47.922Z,72.04
2019-05-19T16:00:15.951Z,70.65
2019-05-19T16:02:42.723Z,71.61
2019-05-19T16:05:09.684Z,70.28
2019-05-19T16:07:36.527Z,69.69
2019-05-19T16:10:06.723Z,68.55
2019-05-19T16:12:33.525Z,71.99
2019-05-19T16:15:00.334Z,72.24
2019-05-19T16:17:27.041Z,72.44
2019-05-19T16:19:53.746Z,72.76
2019-05-19T16:22:20.486Z,69.71
2019-05-19T16:24:47.284Z,67.40
2019-05-19T16:27:13.977Z,69.58
2019-05-19T16:29:41.934Z,71.65
2019-05-19T16:32:08.831Z,66.42
2019-05-19T16:34:35.638Z,71.57
2019-05-19T16:37:02.704Z,69.72
2019-05-19T16:41:57.076Z,62.84
2019-05-19T16:44:23.845Z,69.74
2019-05-19T16:46:50.532Z,70.08
2019-05-19T16:49:17.303Z,69.90
2019-05-19T16:51:43.985Z,66.25
2019-05-19T16:54:15.541Z,69.15
2019-05-19T16:56:42.217Z,67.50
2019-05-19T16:59:09.989Z,70.59
2019-05-19T17:01:36.721Z,69.04
2019-05-19T17:04:03.679Z,71.66
2019-05-19T17:06:30.413Z,69.40
2019-05-19T17:08:59.118Z,69.54
2019-05-19T17:11:26.098Z,69.84
2019-05-19T17:13:52.870Z,70.97
2019-05-19T17:16:20.568Z,72.35
2019-05-19T17:18:47.343Z,73.85
2019-05-19T17:21:14.095Z,73.17
2019-05-19T17:23:40.762Z,73.06
2019-05-19T17:26:07.524Z,74.30
2019-05-19T17:28:34.692Z,73.95
2019-05-19T17:31:01.386Z,73.44
2019-05-19T17:33:28.081Z,74.52
2019-05-19T17:35:54.798Z,73.95
2019-05-19T17:38:21.546Z,75.16
2019-05-19T17:40:48.292Z,75.43
2019-05-19T17:43:15.409Z,74.47
2019-05-19T17:45:42.143Z,75.52
2019-05-19T17:48:11.690Z,75.23
2019-05-19T17:50:37.540Z,75.52
2019-05-19T17:53:04.500Z,72.72
2019-05-19T17:55:33.034Z,76.62
2019-05-19T17:58:01.234Z,77.12
2019-05-19T18:00:40.041Z,75.27
2019-05-19T18:03:07.319Z,74.29
2019-05-19T18:05:34.416Z,76.29
2019-05-19T18:08:01.504Z,75.88
2019-05-19T18:10:28.663Z,75.91
2019-05-19T18:12:55.643Z,74.77
2019-05-19T18:15:22.458Z,75.62
2019-05-19T18:17:49.214Z,75.61
2019-05-19T18:20:23.733Z,73.40
2019-05-19T18:22:45.800Z,74.94
2019-05-19T18:25:12.571Z,75.93
2019-05-19T18:27:39.264Z,73.28
2019-05-19T18:30:06.170Z,73.17
2019-05-19T18:32:33.013Z,75.23
2019-05-19T18:34:59.694Z,72.58
2019-05-19T18:37:26.488Z,67.23
2019-05-19T18:39:53.269Z,73.56
2019-05-19T18:42:20.608Z,72.84
2019-05-19T18:44:47.508Z,70.63
2019-05-19T18:47:14.710Z,72.43
2019-05-19T18:49:41.686Z,69.19
2019-05-19T18:52:08.451Z,66.83
2019-05-19T18:54:35.163Z,66.45
2019-05-19T18:57:02.176Z,71.69
2019-05-19T18:59:29.070Z,62.79
2019-05-19T19:01:55.766Z,61.35
2019-05-19T19:04:22.767Z,61.75
2019-05-19T19:06:49.582Z,61.58
2019-05-19T19:09:16.284Z,60.20
2019-05-19T19:11:43.070Z,65.32
2019-05-19T19:14:09.942Z,62.98
2019-05-19T19:16:36.691Z,66.07
2019-05-19T19:19:03.516Z,65.11
2019-05-19T19:21:30.282Z,65.28
2019-05-19T19:23:56.992Z,65.70
2019-05-19T19:26:23.844Z,65.46
2019-05-19T19:28:50.714Z,64.46
2019-05-19T19:31:17.495Z,66.76
2019-05-19T19:33:44.313Z,58.37
2019-05-19T19:36:11.130Z,62.49
2019-05-19T19:38:37.973Z,64.25
2019-05-19T19:41:04.711Z,61.99
2019-05-19T19:43:32.550Z,62.30
2019-05-19T19:45:59.348Z,54.70
2019-05-19T19:48:26.135Z,51.71
2019-05-19T19:50:53.090Z,48.87
2019-05-19T19:53:20.876Z,48.07
2019-05-19T19:55:47.690Z,47.57
2019-05-19T19:58:14.489Z,44.04
2019-05-19T20:00:43.185Z,41.71
2019-05-19T20:03:10.484Z,48.70
2019-05-19T20:05:39.782Z,45.97
2019-05-19T20:08:06.777Z,51.37
2019-05-19T20:10:35.159Z,44.44
2019-05-19T20:13:02.061Z,44.82
2019-05-19T20:15:28.828Z,52.20
2019-05-19T20:17:55.662Z,43.20
2019-05-19T20:20:24.149Z,43.64
2019-05-19T20:22:50.983Z,40.18
2019-05-19T20:25:17.774Z,40.90
2019-05-19T20:27:44.723Z,37.89
2019-05-19T20:30:11.841Z,41.60
2019-05-19T20:32:38.558Z,38.45
2019-05-19T20:35:05.657Z,36.30
2019-05-19T20:37:32.499Z,35.21
2019-05-19T20:39:59.176Z,35.79
2019-05-19T20:42:25.937Z,36.76
2019-05-19T20:44:52.600Z,36.07
2019-05-19T20:47:19.375Z,37.64
2019-05-19T20:49:46.036Z,35.87
2019-05-19T20:52:13.241Z,36.24
2019-05-19T20:54:40.095Z,35.01
2019-05-19T20:57:06.863Z,34.50
2019-05-19T20:59:33.642Z,35.50
2019-05-19T21:02:00.457Z,35.60
2019-05-19T21:04:27.303Z,36.36
2019-05-19T21:06:54.293Z,37.25
2019-05-19T21:09:21.112Z,38.51
2019-05-19T21:11:47.953Z,37.12
2019-05-19T21:14:14.644Z,36.68
2019-05-19T21:16:41.406Z,36.44
2019-05-19T21:19:09.944Z,36.08
2019-05-19T21:21:36.710Z,36.30
2019-05-19T21:24:03.652Z,36.88
2019-05-19T21:26:30.398Z,38.14
2019-05-19T21:28:57.162Z,39.70
2019-05-19T21:31:23.863Z,40.24
2019-05-19T21:33:50.570Z,41.41
2019-05-19T21:36:18.314Z,42.06
2019-05-19T21:38:45.446Z,40.92
2019-05-19T21:41:12.420Z,40.83
2019-05-19T21:43:39.159Z,41.65
2019-05-19T21:46:06.580Z,41.31
2019-05-19T21:48:34.338Z,41.46
2019-05-19T21:51:01.571Z,41.37
2019-05-19T21:53:28.441Z,41.60
2019-05-19T21:55:55.355Z,42.41
2019-05-19T21:58:22.187Z,43.07
2019-05-19T22:00:49.358Z,43.14
2019-05-19T22:03:16.843Z,42.52
2019-05-19T22:05:52.922Z,43.39
2019-05-19T22:08:18.441Z,43.62
2019-05-19T22:10:45.302Z,42.57
2019-05-19T22:13:12.304Z,42.63
2019-05-19T22:15:38.999Z,43.36
2019-05-19T22:18:05.856Z,43.82
2019-05-19T22:20:32.702Z,43.62
2019-05-19T22:22:59.443Z,44.85
2019-05-19T22:25:26.148Z,46.44
2019-05-19T22:27:52.827Z,44.72
2019-05-19T22:30:20.052Z,45.22
2019-05-19T22:32:48.655Z,44.18
2019-05-19T22:35:15.368Z,43.87
2019-05-19T22:37:42.066Z,43.58
2019-05-19T22:40:09.408Z,43.39
2019-05-19T22:42:36.154Z,43.27
2019-05-19T22:45:06.534Z,43.32
2019-05-19T22:47:33.213Z,43.12
2019-05-19T22:50:00.030Z,43.76
2019-05-19T22:52:26.928Z,43.43
2019-05-19T22:54:53.662Z,44.14
2019-05-19T22:57:20.433Z,44.94
2019-05-19T22:59:47.161Z,43.40
2019-05-19T23:02:13.851Z,44.15
2019-05-19T23:04:40.817Z,45.27
2019-05-19T23:07:07.486Z,44.11
2019-05-19T23:09:34.276Z,44.40
2019-05-19T23:12:00.979Z,44.10
2019-05-19T23:14:27.893Z,45.46
2019-05-19T23:16:54.578Z,44.87
2019-05-19T23:19:21.363Z,43.88
2019-05-19T23:21:48.127Z,45.24
2019-05-19T23:24:14.926Z,43.71
2019-05-19T23:26:41.907Z,43.39
2019-05-19T23:29:08.607Z,42.90
2019-05-19T23:31:35.363Z,42.57
2019-05-19T23:34:02.145Z,42.48
2019-05-19T23:36:28.821Z,43.09
2019-05-19T23:38:55.562Z,43.02
2019-05-19T23:41:22.241Z,42.98
2019-05-19T23:43:48.939Z,42.67
2019-05-19T23:46:15.644Z,43.32
2019-05-19T23:48:42.388Z,44.30
2019-05-19T23:51:09.182Z,44.40
2019-05-19T23:53:35.942Z,44.17
2019-05-19T23:56:03.009Z,44.81
2019-05-19T23:58:29.685Z,46.99
